createdAt,value
2023-03-22T00:00:06.662Z,27.90
2023-03-22T00:02:42.170Z,38.15
2023-03-22T00:05:10.126Z,26.27
2023-03-22T00:07:58.148Z,26.30
2023-03-22T00:10:31.459Z,27.15
2023-03-22T00:13:00.085Z,29.42
2023-03-22T00:15:29.706Z,28.95
2023-03-22T00:18:02.319Z,31.67
2023-03-22T00:20:37.648Z,28.35
2023-03-22T00:23:06.667Z,24.73
2023-03-22T00:25:37.061Z,28.58
2023-03-22T00:28:04.801Z,30.25
2023-03-22T00:30:32.322Z,26.30
2023-03-22T00:33:00.267Z,25.27
2023-03-22T00:35:28.107Z,35.20
2023-03-22T00:37:56.051Z,27.02
2023-03-22T00:40:23.979Z,30.65
2023-03-22T00:42:51.740Z,27.35
2023-03-22T00:45:19.834Z,30.35
2023-03-22T00:47:47.473Z,26.70
2023-03-22T00:50:15.357Z,30.48
2023-03-22T00:52:43.232Z,50.20
2023-03-22T00:55:11.073Z,41.58
2023-03-22T00:57:39.429Z,36.13
2023-03-22T01:00:16.116Z,31.65
2023-03-22T01:02:46.028Z,48.28
2023-03-22T01:05:22.011Z,32.95
2023-03-22T01:07:50.877Z,36.13
2023-03-22T01:10:23.285Z,31.60
2023-03-22T01:12:51.734Z,35.47
2023-03-22T01:15:19.584Z,36.40
2023-03-22T01:17:48.128Z,37.72
2023-03-22T01:20:15.748Z,44.83
2023-03-22T01:22:43.340Z,47.05
2023-03-22T01:25:11.120Z,45.58
2023-03-22T01:27:39.120Z,35.80
2023-03-22T01:30:08.375Z,33.90
2023-03-22T01:32:37.043Z,32.60
2023-03-22T01:35:06.633Z,36.03
2023-03-22T01:37:35.413Z,30.92
2023-03-22T01:40:04.425Z,32.42
2023-03-22T01:42:33.166Z,26.95
2023-03-22T01:45:16.844Z,33.85
2023-03-22T01:47:52.002Z,30.05
2023-03-22T01:50:20.805Z,27.70
2023-03-22T01:52:52.388Z,30.42
2023-03-22T01:55:28.203Z,31.83
2023-03-22T01:58:10.711Z,34.83
2023-03-22T02:00:48.310Z,36.45
2023-03-22T02:03:55.903Z,35.33
2023-03-22T02:06:26.090Z,34.25
2023-03-22T02:09:00.381Z,33.67
2023-03-22T02:11:38.602Z,33.50
2023-03-22T02:14:27.289Z,37.58
2023-03-22T02:17:33.821Z,31.23
2023-03-22T02:20:28.531Z,38.60
2023-03-22T02:23:41.334Z,28.05
2023-03-22T02:26:24.395Z,36.13
2023-03-22T02:29:08.316Z,32.85
2023-03-22T02:31:42.395Z,30.80
2023-03-22T02:34:27.777Z,30.00
2023-03-22T02:37:10.279Z,31.65
2023-03-22T02:39:54.064Z,36.58
2023-03-22T02:42:37.047Z,31.80
2023-03-22T02:45:15.575Z,33.72
2023-03-22T02:47:49.913Z,29.92
2023-03-22T02:50:22.614Z,29.88
2023-03-22T02:52:56.266Z,41.88
2023-03-22T02:55:33.211Z,29.60
2023-03-22T02:58:07.911Z,39.35
2023-03-22T03:00:39.022Z,30.60
2023-03-22T03:03:12.793Z,33.10
2023-03-22T03:05:48.871Z,31.65
2023-03-22T03:08:18.203Z,36.05
2023-03-22T03:10:50.406Z,34.17
2023-03-22T03:13:19.592Z,29.45
2023-03-22T03:15:52.803Z,34.90
2023-03-22T03:18:45.355Z,35.90
2023-03-22T03:21:34.929Z,33.03
2023-03-22T03:24:24.886Z,30.63
2023-03-22T03:27:11.692Z,35.70
2023-03-22T03:29:50.977Z,32.85
2023-03-22T03:32:28.644Z,34.38
2023-03-22T03:35:22.696Z,39.53
2023-03-22T03:38:19.415Z,35.95
2023-03-22T03:40:52.723Z,40.17
2023-03-22T03:43:25.602Z,31.13
2023-03-22T03:45:55.867Z,42.63
2023-03-22T03:48:28.265Z,37.03
2023-03-22T03:50:57.533Z,30.00
2023-03-22T03:53:26.028Z,30.58
2023-03-22T03:55:53.636Z,36.72
2023-03-22T03:58:23.273Z,35.65
2023-03-22T04:00:51.199Z,33.63
2023-03-22T04:03:44.730Z,39.13
2023-03-22T04:06:12.444Z,40.25
2023-03-22T04:08:45.670Z,41.53
2023-03-22T04:11:18.260Z,40.33
2023-03-22T04:13:50.447Z,36.50
2023-03-22T04:16:21.832Z,33.85
2023-03-22T04:18:53.439Z,36.40
2023-03-22T04:21:21.962Z,38.70
2023-03-22T04:23:56.884Z,34.45
2023-03-22T04:26:26.671Z,37.88
2023-03-22T04:29:13.081Z,35.42
2023-03-22T04:31:49.620Z,42.33
2023-03-22T04:34:22.185Z,37.90
2023-03-22T04:36:56.553Z,38.45
2023-03-22T04:39:54.329Z,40.58
2023-03-22T04:45:14.232Z,42.15
2023-03-22T04:47:45.052Z,42.33
2023-03-22T04:50:13.427Z,37.08
2023-03-22T04:52:50.065Z,38.55
2023-03-22T04:55:21.307Z,40.20
2023-03-22T04:57:49.672Z,40.42
2023-03-22T05:00:18.854Z,39.55
2023-03-22T05:02:46.768Z,39.97
2023-03-22T05:05:24.794Z,36.13
2023-03-22T05:07:52.919Z,38.65
2023-03-22T05:10:21.439Z,39.17
2023-03-22T05:12:49.902Z,44.65
2023-03-22T05:15:21.974Z,48.60
2023-03-22T05:17:52.803Z,42.75
2023-03-22T05:20:20.772Z,40.45
2023-03-22T05:22:58.844Z,47.55
2023-03-22T05:25:28.430Z,38.75
2023-03-22T05:28:01.449Z,47.33
2023-03-22T05:30:43.172Z,42.72
2023-03-22T05:33:35.293Z,41.33
2023-03-22T05:38:38.444Z,43.03
2023-03-22T05:41:07.904Z,42.22
2023-03-22T05:43:36.441Z,41.85
2023-03-22T05:46:14.285Z,45.97
2023-03-22T05:49:03.729Z,46.83
2023-03-22T05:51:31.812Z,53.70
2023-03-22T05:53:59.474Z,45.28
2023-03-22T05:56:35.340Z,45.30
2023-03-22T05:59:07.679Z,50.83
2023-03-22T06:01:36.612Z,48.30
2023-03-22T06:04:33.404Z,47.60
2023-03-22T06:07:05.750Z,52.83
2023-03-22T06:09:53.592Z,46.53
2023-03-22T06:12:33.410Z,50.60
2023-03-22T06:15:10.827Z,46.13
2023-03-22T06:17:43.151Z,45.60
2023-03-22T06:20:17.936Z,43.85
2023-03-22T06:22:52.839Z,45.63
2023-03-22T06:25:20.567Z,47.80
2023-03-22T06:27:49.269Z,49.73
2023-03-22T06:30:18.284Z,50.28
2023-03-22T06:33:13.069Z,49.63
2023-03-22T06:35:44.918Z,57.25
2023-03-22T06:38:18.603Z,54.65
2023-03-22T06:40:46.869Z,47.55
2023-03-22T06:43:15.173Z,46.42
2023-03-22T06:45:48.045Z,48.63
2023-03-22T06:48:19.363Z,49.17
2023-03-22T06:50:59.657Z,52.92
2023-03-22T06:53:32.057Z,50.33
2023-03-22T06:55:59.808Z,61.58
2023-03-22T06:58:28.437Z,54.57
2023-03-22T07:00:57.195Z,51.28
2023-03-22T07:03:27.682Z,55.03
2023-03-22T07:06:07.445Z,51.20
2023-03-22T07:08:38.188Z,58.13
2023-03-22T07:13:36.460Z,55.17
2023-03-22T07:16:10.618Z,52.15
2023-03-22T07:18:52.306Z,53.42
2023-03-22T07:21:19.895Z,49.47
2023-03-22T07:23:52.567Z,53.97
2023-03-22T07:26:22.582Z,53.15
2023-03-22T07:28:51.662Z,56.25
2023-03-22T07:31:22.182Z,58.38
2023-03-22T07:39:35.765Z,55.78
2023-03-22T07:42:05.712Z,49.92
2023-03-22T07:44:57.032Z,55.08
2023-03-22T07:47:40.079Z,49.45
2023-03-22T07:50:26.649Z,52.17
2023-03-22T07:53:00.091Z,55.20
2023-03-22T07:55:27.955Z,53.78
2023-03-22T07:57:56.545Z,54.30
2023-03-22T08:00:24.627Z,49.67
2023-03-22T08:03:26.714Z,55.15
2023-03-22T08:06:07.706Z,47.20
2023-03-22T08:08:37.431Z,48.75
2023-03-22T08:11:07.430Z,50.38
2023-03-22T08:13:35.860Z,47.10
2023-03-22T08:16:05.523Z,42.63
2023-03-22T08:18:35.466Z,46.40
2023-03-22T08:21:04.378Z,52.92
2023-03-22T08:23:42.219Z,48.85
2023-03-22T08:26:49.818Z,61.03
2023-03-22T08:32:06.589Z,63.75
2023-03-22T08:34:38.233Z,52.88
2023-03-22T08:37:07.771Z,61.22
2023-03-22T08:39:36.717Z,51.35
2023-03-22T08:42:25.332Z,52.70
2023-03-22T08:44:52.869Z,48.10
2023-03-22T08:47:24.518Z,46.53
2023-03-22T08:49:57.389Z,45.25
2023-03-22T08:52:36.095Z,41.97
2023-03-22T08:55:09.304Z,41.85
2023-03-22T08:57:59.051Z,36.40
2023-03-22T09:00:48.234Z,34.35
2023-03-22T09:03:37.181Z,30.65
2023-03-22T09:06:05.823Z,32.40
2023-03-22T09:08:38.996Z,27.50
2023-03-22T09:11:15.606Z,28.02
2023-03-22T09:13:56.300Z,34.70
2023-03-22T09:16:30.345Z,32.28
2023-03-22T09:19:01.674Z,38.25
2023-03-22T09:21:32.547Z,29.60
2023-03-22T09:24:12.222Z,33.03
2023-03-22T09:26:46.649Z,30.20
2023-03-22T09:29:17.008Z,30.08
2023-03-22T09:31:49.046Z,30.08
2023-03-22T09:34:24.523Z,36.42
2023-03-22T09:36:53.183Z,37.33
2023-03-22T09:39:25.094Z,36.17
2023-03-22T09:42:00.827Z,32.33
2023-03-22T09:44:37.630Z,34.15
2023-03-22T09:47:15.879Z,41.63
2023-03-22T09:49:54.069Z,36.28
2023-03-22T09:52:22.745Z,32.15
2023-03-22T09:54:52.669Z,34.45
2023-03-22T09:57:37.446Z,35.10
2023-03-22T10:00:11.723Z,31.00
2023-03-22T10:02:57.984Z,34.42
2023-03-22T10:05:35.208Z,30.38
2023-03-22T10:08:41.594Z,33.65
2023-03-22T10:11:22.825Z,32.97
2023-03-22T10:14:35.351Z,37.97
2023-03-22T10:17:08.723Z,31.00
2023-03-22T10:20:01.068Z,38.85
2023-03-22T10:22:33.638Z,36.92
2023-03-22T10:25:02.570Z,36.88
2023-03-22T10:27:32.084Z,32.47
2023-03-22T10:30:22.530Z,32.90
2023-03-22T10:33:00.043Z,35.03
2023-03-22T10:35:28.704Z,36.78
2023-03-22T10:38:00.949Z,31.60
2023-03-22T10:40:35.363Z,32.55
2023-03-22T10:43:09.975Z,31.88
2023-03-22T10:45:38.202Z,35.33
2023-03-22T10:48:27.057Z,40.28
2023-03-22T10:50:56.933Z,38.53
2023-03-22T10:53:41.225Z,34.20
2023-03-22T10:56:15.727Z,28.20
2023-03-22T10:58:49.351Z,29.83
2023-03-22T11:01:41.590Z,29.15
2023-03-22T11:04:15.273Z,33.72
2023-03-22T11:06:54.840Z,29.50
2023-03-22T11:09:24.654Z,33.22
2023-03-22T11:12:00.278Z,35.15
2023-03-22T11:14:35.706Z,37.42
2023-03-22T11:17:06.467Z,33.40
2023-03-22T11:19:50.408Z,28.80
2023-03-22T11:22:31.644Z,33.30
2023-03-22T11:25:00.878Z,37.70
2023-03-22T11:27:33.419Z,32.50
2023-03-22T11:30:20.415Z,34.20
2023-03-22T11:32:49.154Z,38.15
2023-03-22T11:35:27.724Z,30.63
2023-03-22T11:37:56.525Z,27.50
2023-03-22T11:40:29.976Z,29.13
2023-03-22T11:43:10.811Z,30.73
2023-03-22T11:45:45.597Z,24.35
2023-03-22T11:50:46.421Z,31.73
2023-03-22T11:53:18.095Z,28.30
2023-03-22T11:55:48.641Z,27.70
2023-03-22T11:58:49.137Z,30.83
2023-03-22T12:01:32.212Z,33.30
2023-03-22T12:04:04.183Z,31.80
2023-03-22T12:06:41.041Z,28.70
2023-03-22T12:09:35.724Z,28.08
2023-03-22T12:12:06.816Z,29.95
2023-03-22T12:14:45.487Z,32.40
2023-03-22T12:17:19.735Z,34.92
2023-03-22T12:19:58.225Z,79.97
2023-03-22T12:22:32.187Z,33.05
2023-03-22T12:25:01.623Z,34.83
2023-03-22T12:27:37.556Z,34.63
2023-03-22T12:30:16.601Z,28.45
2023-03-22T12:32:59.722Z,36.95
2023-03-22T12:35:31.783Z,35.65
2023-03-22T12:38:06.871Z,39.80
2023-03-22T12:40:39.639Z,36.15
2023-03-22T12:43:30.980Z,32.20
2023-03-22T12:46:03.246Z,28.60
2023-03-22T12:48:44.620Z,32.88
2023-03-22T12:51:14.886Z,28.75
2023-03-22T12:53:49.335Z,29.80
2023-03-22T12:56:25.738Z,30.83
2023-03-22T12:59:03.547Z,57.92
2023-03-22T13:02:05.499Z,25.83
2023-03-22T13:04:51.632Z,26.08
2023-03-22T13:07:29.076Z,26.00
2023-03-22T13:09:58.607Z,30.35
2023-03-22T13:12:34.429Z,21.55
2023-03-22T13:15:40.412Z,22.55
2023-03-22T13:18:43.783Z,19.08
2023-03-22T13:21:14.037Z,24.73
2023-03-22T13:24:20.171Z,23.80
2023-03-22T13:26:55.147Z,26.60
2023-03-22T13:29:25.584Z,24.25
2023-03-22T13:32:02.072Z,24.98
2023-03-22T13:34:49.199Z,24.83
2023-03-22T13:37:46.035Z,19.25
2023-03-22T13:40:15.366Z,21.33
2023-03-22T13:42:45.318Z,19.85
2023-03-22T13:45:34.003Z,19.88
2023-03-22T13:48:28.947Z,21.05
2023-03-22T13:50:58.502Z,23.00
2023-03-22T13:53:30.960Z,23.20
2023-03-22T13:56:03.741Z,20.95
2023-03-22T13:58:53.115Z,23.58
2023-03-22T14:01:35.308Z,21.83
2023-03-22T14:04:10.776Z,19.35
2023-03-22T14:06:52.673Z,20.48
2023-03-22T14:09:31.353Z,18.65
2023-03-22T14:12:27.162Z,23.33
2023-03-22T14:15:03.644Z,29.40
2023-03-22T14:17:39.374Z,39.20
2023-03-22T14:20:10.769Z,25.55
